Chenoa, IL

11:05 AM CST on February 10, 2016 (GMT -0600)
APRSWXNET | | Change Station
CLOSE
Current Station
Personal Weather Station
Location: Pontiac, IL
Elevation: 646 ft
Nearby Weather Stations

Elev 646 ft 40.88 °N, 88.63 °W | Updated 25 minutes ago

Partly Cloudy
Partly Cloudy
16 °F
Feels Like 16 °F
N
1
Wind Variable Wind from WSW
Gusts 9.0 mph

Today
High -- | Low -- °F
--% Chance of Precip.
Yesterday
High -- | Low -- °F
Precip. -- in
Pressure 30.09 in
Visibility 10.0 miles
Clouds Scattered Clouds 2600 ft
Windchill 16 °F
Dew Point 8 °F
Humidity 69%
Rainfall in
Snow Depth Not available.
6:55 AM 5:23 PM
Waxing Crescent, 6% visible
METAR KPNT 101655Z AUTO 31010G18KT 10SM SCT026 M09/M15 A3009 RMK AO2 T10941147
Pressure 30.09 in
Visibility 10.0 miles
Clouds Scattered Clouds 2600 ft
Windchill 16 °F
Dew Point 8 °F
Humidity 69%
Rainfall in
Snow Depth Not available.
6:55 AM 5:23 PM
Waxing Crescent, 6% visible
METAR KPNT 101655Z AUTO 31010G18KT 10SM SCT026 M09/M15 A3009 RMK AO2 T10941147

10-Day Weather Forecast

Almanac

Astronomy

Feb. 10, 2016 Rise Set
Actual Time
Civil Twilight
Nautical Twilight
Astronomical Twilight
Moon
Length of Visible Light
Length of Day
Tomorrow will be .
, % of the Moon is Illuminated

Today's Extremes

State Highs State Lows

Community

WunderPhotos

Upload Photos

1,891,892 photos uploaded!

WunderBlog® & News

Nearby

Air Quality

  Air Quality AQ Index Pollutant
Not available.

Snow Depth

Station Depth Elevation

Earthquake Activity

City Distance Mag. Time & Date
Minimum magnitude displayed is 2.5.

Coastal Water Temperatures

Place Temperature

Stations

Nearby Weather Stations

Station Location Temp. Windchill Dew Point Humidity Wind Precip. Elev Updated Type
                   

Watches & Warnings

There are currently no watches in effect.